sensor_id;sensor_type;location;lat;lon;timestamp;P1;durP1;ratioP1;P2;durP2;ratioP2
18042;SDS011;9146;48.074;11.968;2023-05-14T00:01:03;21.63;;;15.90;;
18042;SDS011;9146;48.074;11.968;2023-05-14T00:03:32;30.87;;;19.13;;
18042;SDS011;9146;48.074;11.968;2023-05-14T00:06:02;21.03;;;15.43;;
18042;SDS011;9146;48.074;11.968;2023-05-14T00:08:29;25.20;;;17.83;;
18042;SDS011;9146;48.074;11.968;2023-05-14T00:10:56;22.07;;;16.03;;
18042;SDS011;9146;48.074;11.968;2023-05-14T00:13:23;21.47;;;15.77;;
18042;SDS011;9146;48.074;11.968;2023-05-14T00:15:50;18.87;;;14.97;;
18042;SDS011;9146;48.074;11.968;2023-05-14T00:18:17;18.40;;;13.90;;
18042;SDS011;9146;48.074;11.968;2023-05-14T00:20:44;21.43;;;13.73;;
18042;SDS011;9146;48.074;11.968;2023-05-14T00:23:12;22.63;;;15.40;;
18042;SDS011;9146;48.074;11.968;2023-05-14T00:25:39;20.90;;;14.37;;
18042;SDS011;9146;48.074;11.968;2023-05-14T00:28:05;23.87;;;16.23;;
18042;SDS011;9146;48.074;11.968;2023-05-14T00:30:32;22.87;;;16.30;;
18042;SDS011;9146;48.074;11.968;2023-05-14T00:32:59;20.77;;;14.67;;
18042;SDS011;9146;48.074;11.968;2023-05-14T00:35:26;21.37;;;16.87;;
18042;SDS011;9146;48.074;11.968;2023-05-14T00:37:55;20.33;;;14.80;;
18042;SDS011;9146;48.074;11.968;2023-05-14T00:40:23;18.03;;;13.60;;
18042;SDS011;9146;48.074;11.968;2023-05-14T00:42:51;21.17;;;14.93;;
18042;SDS011;9146;48.074;11.968;2023-05-14T00:45:18;21.30;;;15.73;;
18042;SDS011;9146;48.074;11.968;2023-05-14T00:47:45;24.60;;;16.30;;
18042;SDS011;9146;48.074;11.968;2023-05-14T00:50:13;23.30;;;16.40;;
18042;SDS011;9146;48.074;11.968;2023-05-14T00:52:41;22.30;;;15.37;;
18042;SDS011;9146;48.074;11.968;2023-05-14T00:55:09;19.00;;;13.93;;
18042;SDS011;9146;48.074;11.968;2023-05-14T00:57:41;23.30;;;16.10;;
18042;SDS011;9146;48.074;11.968;2023-05-14T01:00:09;21.30;;;15.27;;
18042;SDS011;9146;48.074;11.968;2023-05-14T01:02:36;19.07;;;14.67;;
18042;SDS011;9146;48.074;11.968;2023-05-14T01:05:03;21.10;;;15.70;;
18042;SDS011;9146;48.074;11.968;2023-05-14T01:07:32;26.07;;;14.90;;
18042;SDS011;9146;48.074;11.968;2023-05-14T01:10:06;24.80;;;16.20;;
18042;SDS011;9146;48.074;11.968;2023-05-14T01:12:38;28.23;;;17.60;;
18042;SDS011;9146;48.074;11.968;2023-05-14T01:15:17;20.67;;;16.50;;
18042;SDS011;9146;48.074;11.968;2023-05-14T01:17:47;26.90;;;15.93;;
18042;SDS011;9146;48.074;11.968;2023-05-14T01:20:18;26.40;;;17.60;;
18042;SDS011;9146;48.074;11.968;2023-05-14T01:22:47;22.10;;;16.33;;
18042;SDS011;9146;48.074;11.968;2023-05-14T01:25:13;17.27;;;14.60;;
18042;SDS011;9146;48.074;11.968;2023-05-14T01:27:41;21.40;;;14.63;;
18042;SDS011;9146;48.074;11.968;2023-05-14T01:30:16;19.27;;;15.20;;
18042;SDS011;9146;48.074;11.968;2023-05-14T01:32:47;22.87;;;14.93;;
18042;SDS011;9146;48.074;11.968;2023-05-14T01:35:19;20.17;;;14.70;;
18042;SDS011;9146;48.074;11.968;2023-05-14T01:37:49;20.60;;;15.53;;
18042;SDS011;9146;48.074;11.968;2023-05-14T01:40:16;23.93;;;15.97;;
18042;SDS011;9146;48.074;11.968;2023-05-14T01:42:43;24.30;;;15.53;;
18042;SDS011;9146;48.074;11.968;2023-05-14T01:45:11;21.90;;;16.27;;
18042;SDS011;9146;48.074;11.968;2023-05-14T01:47:38;22.17;;;15.37;;
18042;SDS011;9146;48.074;11.968;2023-05-14T01:50:05;17.97;;;13.90;;
18042;SDS011;9146;48.074;11.968;2023-05-14T01:52:33;20.73;;;14.97;;
18042;SDS011;9146;48.074;11.968;2023-05-14T01:55:01;23.00;;;15.87;;
18042;SDS011;9146;48.074;11.968;2023-05-14T01:57:29;21.80;;;14.90;;
18042;SDS011;9146;48.074;11.968;2023-05-14T01:59:56;23.63;;;15.37;;
18042;SDS011;9146;48.074;11.968;2023-05-14T02:02:23;21.80;;;16.53;;
18042;SDS011;9146;48.074;11.968;2023-05-14T02:04:50;22.33;;;15.50;;
18042;SDS011;9146;48.074;11.968;2023-05-14T02:07:17;20.40;;;14.80;;
18042;SDS011;9146;48.074;11.968;2023-05-14T02:09:44;26.10;;;17.33;;
18042;SDS011;9146;48.074;11.968;2023-05-14T02:12:12;21.93;;;15.73;;
18042;SDS011;9146;48.074;11.968;2023-05-14T02:14:39;24.00;;;17.17;;
18042;SDS011;9146;48.074;11.968;2023-05-14T02:17:06;23.50;;;16.40;;
18042;SDS011;9146;48.074;11.968;2023-05-14T02:19:33;23.47;;;17.13;;
18042;SDS011;9146;48.074;11.968;2023-05-14T02:22:00;23.67;;;16.67;;
18042;SDS011;9146;48.074;11.968;2023-05-14T02:24:27;25.20;;;18.00;;
18042;SDS011;9146;48.074;11.968;2023-05-14T02:26:54;25.50;;;18.97;;
18042;SDS011;9146;48.074;11.968;2023-05-14T02:29:25;25.30;;;17.30;;
18042;SDS011;9146;48.074;11.968;2023-05-14T02:31:52;28.43;;;19.97;;
18042;SDS011;9146;48.074;11.968;2023-05-14T02:34:19;24.37;;;17.60;;
18042;SDS011;9146;48.074;11.968;2023-05-14T02:36:46;30.73;;;20.90;;
18042;SDS011;9146;48.074;11.968;2023-05-14T02:39:13;23.33;;;15.93;;
18042;SDS011;9146;48.074;11.968;2023-05-14T02:41:39;23.97;;;17.50;;
18042;SDS011;9146;48.074;11.968;2023-05-14T02:44:06;23.60;;;18.17;;
18042;SDS011;9146;48.074;11.968;2023-05-14T02:46:35;28.53;;;20.87;;
18042;SDS011;9146;48.074;11.968;2023-05-14T02:49:01;31.20;;;20.43;;
18042;SDS011;9146;48.074;11.968;2023-05-14T02:51:28;26.27;;;19.57;;
18042;SDS011;9146;48.074;11.968;2023-05-14T02:53:55;28.40;;;20.00;;
18042;SDS011;9146;48.074;11.968;2023-05-14T02:56:22;23.57;;;17.10;;
18042;SDS011;9146;48.074;11.968;2023-05-14T02:58:49;26.97;;;18.50;;
18042;SDS011;9146;48.074;11.968;2023-05-14T03:01:16;31.17;;;21.10;;
18042;SDS011;9146;48.074;11.968;2023-05-14T03:03:44;35.40;;;22.73;;
18042;SDS011;9146;48.074;11.968;2023-05-14T03:06:11;30.60;;;21.13;;
18042;SDS011;9146;48.074;11.968;2023-05-14T03:08:38;28.97;;;20.23;;
18042;SDS011;9146;48.074;11.968;2023-05-14T03:11:05;31.40;;;23.13;;
18042;SDS011;9146;48.074;11.968;2023-05-14T03:13:32;38.97;;;26.10;;
18042;SDS011;9146;48.074;11.968;2023-05-14T03:15:59;44.17;;;25.97;;
18042;SDS011;9146;48.074;11.968;2023-05-14T03:18:26;32.47;;;24.43;;
18042;SDS011;9146;48.074;11.968;2023-05-14T03:20:56;35.90;;;25.80;;
18042;SDS011;9146;48.074;11.968;2023-05-14T03:23:22;40.20;;;26.60;;
18042;SDS011;9146;48.074;11.968;2023-05-14T03:25:49;36.93;;;25.97;;
18042;SDS011;9146;48.074;11.968;2023-05-14T03:28:16;41.87;;;26.97;;
18042;SDS011;9146;48.074;11.968;2023-05-14T03:30:43;38.53;;;26.40;;
18042;SDS011;9146;48.074;11.968;2023-05-14T03:33:10;34.77;;;25.50;;
18042;SDS011;9146;48.074;11.968;2023-05-14T03:35:38;35.63;;;24.60;;
18042;SDS011;9146;48.074;11.968;2023-05-14T03:38:06;38.73;;;27.13;;
18042;SDS011;9146;48.074;11.968;2023-05-14T03:40:33;35.23;;;24.17;;
18042;SDS011;9146;48.074;11.968;2023-05-14T03:43:00;37.17;;;25.57;;
18042;SDS011;9146;48.074;11.968;2023-05-14T03:45:27;41.57;;;27.40;;
18042;SDS011;9146;48.074;11.968;2023-05-14T03:47:54;33.30;;;24.40;;
18042;SDS011;9146;48.074;11.968;2023-05-14T03:50:21;36.70;;;24.00;;
18042;SDS011;9146;48.074;11.968;2023-05-14T03:52:49;39.77;;;25.70;;
18042;SDS011;9146;48.074;11.968;2023-05-14T03:55:18;38.93;;;25.40;;
18042;SDS011;9146;48.074;11.968;2023-05-14T03:57:45;34.93;;;24.90;;
18042;SDS011;9146;48.074;11.968;2023-05-14T04:00:13;39.20;;;25.80;;
18042;SDS011;9146;48.074;11.968;2023-05-14T04:02:40;34.63;;;23.53;;
18042;SDS011;9146;48.074;11.968;2023-05-14T04:05:07;40.40;;;26.70;;
18042;SDS011;9146;48.074;11.968;2023-05-14T04:07:34;37.80;;;25.40;;
18042;SDS011;9146;48.074;11.968;2023-05-14T04:10:02;39.33;;;26.53;;
18042;SDS011;9146;48.074;11.968;2023-05-14T04:12:30;35.67;;;24.80;;
18042;SDS011;9146;48.074;11.968;2023-05-14T04:14:57;46.00;;;27.53;;
18042;SDS011;9146;48.074;11.968;2023-05-14T04:17:24;38.57;;;26.00;;
18042;SDS011;9146;48.074;11.968;2023-05-14T04:19:51;42.10;;;26.60;;
18042;SDS011;9146;48.074;11.968;2023-05-14T04:22:18;45.20;;;27.40;;
18042;SDS011;9146;48.074;11.968;2023-05-14T04:24:45;41.70;;;28.07;;
18042;SDS011;9146;48.074;11.968;2023-05-14T04:27:13;34.03;;;23.63;;
18042;SDS011;9146;48.074;11.968;2023-05-14T04:29:47;39.97;;;25.13;;
18042;SDS011;9146;48.074;11.968;2023-05-14T04:32:14;35.70;;;23.33;;
18042;SDS011;9146;48.074;11.968;2023-05-14T04:34:41;33.90;;;22.30;;
18042;SDS011;9146;48.074;11.968;2023-05-14T04:37:08;37.00;;;23.00;;
18042;SDS011;9146;48.074;11.968;2023-05-14T04:39:35;39.57;;;26.20;;
18042;SDS011;9146;48.074;11.968;2023-05-14T04:42:03;38.10;;;24.03;;
18042;SDS011;9146;48.074;11.968;2023-05-14T04:44:30;39.70;;;24.27;;
18042;SDS011;9146;48.074;11.968;2023-05-14T04:47:00;34.53;;;23.60;;
18042;SDS011;9146;48.074;11.968;2023-05-14T04:49:27;40.10;;;24.80;;
18042;SDS011;9146;48.074;11.968;2023-05-14T04:51:54;41.27;;;23.17;;
18042;SDS011;9146;48.074;11.968;2023-05-14T04:54:21;39.87;;;24.53;;
18042;SDS011;9146;48.074;11.968;2023-05-14T04:56:48;34.43;;;24.00;;
18042;SDS011;9146;48.074;11.968;2023-05-14T04:59:15;37.07;;;22.80;;
18042;SDS011;9146;48.074;11.968;2023-05-14T05:01:42;36.93;;;22.00;;
18042;SDS011;9146;48.074;11.968;2023-05-14T05:04:11;33.77;;;22.77;;
18042;SDS011;9146;48.074;11.968;2023-05-14T05:06:37;34.77;;;22.90;;
18042;SDS011;9146;48.074;11.968;2023-05-14T05:09:04;35.90;;;22.90;;
18042;SDS011;9146;48.074;11.968;2023-05-14T05:11:32;31.90;;;21.50;;
18042;SDS011;9146;48.074;11.968;2023-05-14T05:13:59;37.80;;;23.03;;
18042;SDS011;9146;48.074;11.968;2023-05-14T05:16:26;32.43;;;21.23;;
18042;SDS011;9146;48.074;11.968;2023-05-14T05:18:56;38.07;;;23.80;;
18042;SDS011;9146;48.074;11.968;2023-05-14T05:21:24;32.40;;;21.07;;
18042;SDS011;9146;48.074;11.968;2023-05-14T05:23:51;36.60;;;23.03;;
18042;SDS011;9146;48.074;11.968;2023-05-14T05:26:18;28.93;;;19.37;;
18042;SDS011;9146;48.074;11.968;2023-05-14T05:28:46;33.73;;;21.60;;
18042;SDS011;9146;48.074;11.968;2023-05-14T05:31:12;35.10;;;21.70;;
18042;SDS011;9146;48.074;11.968;2023-05-14T05:33:40;36.77;;;22.70;;
18042;SDS011;9146;48.074;11.968;2023-05-14T05:36:07;32.80;;;21.50;;
18042;SDS011;9146;48.074;11.968;2023-05-14T05:38:35;35.67;;;22.37;;
18042;SDS011;9146;48.074;11.968;2023-05-14T05:41:02;40.13;;;24.03;;
18042;SDS011;9146;48.074;11.968;2023-05-14T05:43:29;39.80;;;23.70;;
18042;SDS011;9146;48.074;11.968;2023-05-14T05:45:58;30.57;;;21.40;;
18042;SDS011;9146;48.074;11.968;2023-05-14T05:48:26;42.40;;;24.00;;
18042;SDS011;9146;48.074;11.968;2023-05-14T05:50:53;38.50;;;23.00;;
18042;SDS011;9146;48.074;11.968;2023-05-14T05:53:19;35.30;;;21.63;;
18042;SDS011;9146;48.074;11.968;2023-05-14T05:55:48;35.17;;;21.90;;
18042;SDS011;9146;48.074;11.968;2023-05-14T05:58:15;35.03;;;22.00;;
18042;SDS011;9146;48.074;11.968;2023-05-14T06:00:43;35.43;;;22.37;;
18042;SDS011;9146;48.074;11.968;2023-05-14T06:03:10;33.40;;;22.77;;
18042;SDS011;9146;48.074;11.968;2023-05-14T06:05:38;35.47;;;23.30;;
18042;SDS011;9146;48.074;11.968;2023-05-14T06:08:05;36.67;;;22.20;;
18042;SDS011;9146;48.074;11.968;2023-05-14T06:10:32;31.27;;;21.23;;
18042;SDS011;9146;48.074;11.968;2023-05-14T06:13:04;31.60;;;21.57;;
18042;SDS011;9146;48.074;11.968;2023-05-14T06:15:33;35.03;;;21.13;;
18042;SDS011;9146;48.074;11.968;2023-05-14T06:18:00;34.17;;;21.07;;
18042;SDS011;9146;48.074;11.968;2023-05-14T06:20:26;32.60;;;21.57;;
18042;SDS011;9146;48.074;11.968;2023-05-14T06:22:53;39.50;;;21.90;;
18042;SDS011;9146;48.074;11.968;2023-05-14T06:25:21;32.33;;;20.37;;
18042;SDS011;9146;48.074;11.968;2023-05-14T06:27:48;23.40;;;17.57;;
18042;SDS011;9146;48.074;11.968;2023-05-14T06:30:16;22.50;;;17.80;;
18042;SDS011;9146;48.074;11.968;2023-05-14T06:32:43;27.03;;;18.37;;
18042;SDS011;9146;48.074;11.968;2023-05-14T06:35:10;25.53;;;19.47;;
18042;SDS011;9146;48.074;11.968;2023-05-14T06:37:37;25.27;;;18.00;;
18042;SDS011;9146;48.074;11.968;2023-05-14T06:40:04;25.67;;;17.97;;
18042;SDS011;9146;48.074;11.968;2023-05-14T06:42:32;28.13;;;18.50;;
18042;SDS011;9146;48.074;11.968;2023-05-14T06:44:59;27.90;;;18.97;;
18042;SDS011;9146;48.074;11.968;2023-05-14T06:47:27;26.57;;;17.10;;
18042;SDS011;9146;48.074;11.968;2023-05-14T06:49:54;25.70;;;17.13;;
18042;SDS011;9146;48.074;11.968;2023-05-14T06:52:22;29.80;;;17.60;;
18042;SDS011;9146;48.074;11.968;2023-05-14T06:54:49;29.67;;;19.33;;
18042;SDS011;9146;48.074;11.968;2023-05-14T06:57:16;23.77;;;16.13;;
18042;SDS011;9146;48.074;11.968;2023-05-14T06:59:43;22.77;;;16.67;;
18042;SDS011;9146;48.074;11.968;2023-05-14T07:02:10;24.73;;;16.80;;
18042;SDS011;9146;48.074;11.968;2023-05-14T07:04:39;23.60;;;16.80;;
18042;SDS011;9146;48.074;11.968;2023-05-14T07:07:06;23.10;;;15.83;;
18042;SDS011;9146;48.074;11.968;2023-05-14T07:09:34;21.93;;;13.87;;
18042;SDS011;9146;48.074;11.968;2023-05-14T07:12:01;21.37;;;14.17;;
18042;SDS011;9146;48.074;11.968;2023-05-14T07:14:28;21.77;;;15.00;;
18042;SDS011;9146;48.074;11.968;2023-05-14T07:16:56;17.03;;;13.67;;
18042;SDS011;9146;48.074;11.968;2023-05-14T07:19:23;19.40;;;15.00;;
18042;SDS011;9146;48.074;11.968;2023-05-14T07:21:54;17.40;;;13.50;;
18042;SDS011;9146;48.074;11.968;2023-05-14T07:24:21;19.87;;;15.53;;
18042;SDS011;9146;48.074;11.968;2023-05-14T07:26:49;21.70;;;15.20;;
18042;SDS011;9146;48.074;11.968;2023-05-14T07:29:16;19.00;;;14.20;;
18042;SDS011;9146;48.074;11.968;2023-05-14T07:31:44;18.10;;;13.50;;
18042;SDS011;9146;48.074;11.968;2023-05-14T07:34:11;16.13;;;12.47;;
18042;SDS011;9146;48.074;11.968;2023-05-14T07:36:38;16.60;;;12.63;;
18042;SDS011;9146;48.074;11.968;2023-05-14T07:39:06;17.43;;;12.63;;
18042;SDS011;9146;48.074;11.968;2023-05-14T07:41:33;15.37;;;10.63;;
18042;SDS011;9146;48.074;11.968;2023-05-14T07:44:00;16.13;;;12.80;;
18042;SDS011;9146;48.074;11.968;2023-05-14T07:46:27;13.70;;;11.10;;
18042;SDS011;9146;48.074;11.968;2023-05-14T07:48:54;13.77;;;11.87;;
18042;SDS011;9146;48.074;11.968;2023-05-14T07:51:21;15.37;;;11.93;;
18042;SDS011;9146;48.074;11.968;2023-05-14T07:53:48;16.17;;;11.80;;
18042;SDS011;9146;48.074;11.968;2023-05-14T07:56:16;14.87;;;11.10;;
18042;SDS011;9146;48.074;11.968;2023-05-14T07:58:44;14.07;;;11.47;;
18042;SDS011;9146;48.074;11.968;2023-05-14T08:01:10;13.23;;;10.93;;
18042;SDS011;9146;48.074;11.968;2023-05-14T08:03:37;15.07;;;10.73;;
18042;SDS011;9146;48.074;11.968;2023-05-14T08:06:05;16.87;;;12.20;;
18042;SDS011;9146;48.074;11.968;2023-05-14T08:08:32;12.30;;;10.77;;
18042;SDS011;9146;48.074;11.968;2023-05-14T08:10:59;13.70;;;10.70;;
18042;SDS011;9146;48.074;11.968;2023-05-14T08:13:27;12.90;;;10.27;;
18042;SDS011;9146;48.074;11.968;2023-05-14T08:15:54;12.70;;;11.30;;
18042;SDS011;9146;48.074;11.968;2023-05-14T08:18:21;12.77;;;10.77;;
18042;SDS011;9146;48.074;11.968;2023-05-14T08:20:48;11.00;;;9.43;;
18042;SDS011;9146;48.074;11.968;2023-05-14T08:23:15;11.20;;;9.10;;
18042;SDS011;9146;48.074;11.968;2023-05-14T08:25:42;11.67;;;10.30;;
18042;SDS011;9146;48.074;11.968;2023-05-14T08:28:09;12.30;;;9.80;;
18042;SDS011;9146;48.074;11.968;2023-05-14T08:30:37;11.30;;;10.10;;
18042;SDS011;9146;48.074;11.968;2023-05-14T08:33:04;11.17;;;9.93;;
18042;SDS011;9146;48.074;11.968;2023-05-14T08:35:31;14.43;;;10.67;;
18042;SDS011;9146;48.074;11.968;2023-05-14T08:37:58;13.80;;;10.67;;
18042;SDS011;9146;48.074;11.968;2023-05-14T08:40:25;15.53;;;11.30;;
18042;SDS011;9146;48.074;11.968;2023-05-14T08:42:52;11.30;;;9.67;;
18042;SDS011;9146;48.074;11.968;2023-05-14T08:45:23;14.37;;;10.20;;
18042;SDS011;9146;48.074;11.968;2023-05-14T08:47:56;12.47;;;9.80;;
18042;SDS011;9146;48.074;11.968;2023-05-14T08:50:24;11.80;;;9.87;;
18042;SDS011;9146;48.074;11.968;2023-05-14T08:52:54;12.03;;;9.20;;
18042;SDS011;9146;48.074;11.968;2023-05-14T08:55:21;11.30;;;8.43;;
18042;SDS011;9146;48.074;11.968;2023-05-14T08:57:48;11.77;;;9.37;;
18042;SDS011;9146;48.074;11.968;2023-05-14T09:00:15;11.07;;;9.20;;
18042;SDS011;9146;48.074;11.968;2023-05-14T09:02:43;11.63;;;9.53;;
18042;SDS011;9146;48.074;11.968;2023-05-14T09:05:13;11.50;;;8.17;;
18042;SDS011;9146;48.074;11.968;2023-05-14T09:07:42;14.67;;;10.57;;
18042;SDS011;9146;48.074;11.968;2023-05-14T09:10:09;13.20;;;9.63;;
18042;SDS011;9146;48.074;11.968;2023-05-14T09:12:36;12.03;;;10.17;;
18042;SDS011;9146;48.074;11.968;2023-05-14T09:15:04;13.10;;;9.60;;
18042;SDS011;9146;48.074;11.968;2023-05-14T09:17:32;12.43;;;9.73;;
18042;SDS011;9146;48.074;11.968;2023-05-14T09:19:59;13.13;;;10.47;;
18042;SDS011;9146;48.074;11.968;2023-05-14T09:22:29;11.57;;;9.17;;
18042;SDS011;9146;48.074;11.968;2023-05-14T09:25:03;10.60;;;8.87;;
18042;SDS011;9146;48.074;11.968;2023-05-14T09:27:31;12.77;;;10.43;;
18042;SDS011;9146;48.074;11.968;2023-05-14T09:30:05;12.70;;;9.90;;
18042;SDS011;9146;48.074;11.968;2023-05-14T09:32:34;11.50;;;10.30;;
18042;SDS011;9146;48.074;11.968;2023-05-14T09:35:09;14.10;;;11.57;;
18042;SDS011;9146;48.074;11.968;2023-05-14T09:37:38;12.37;;;10.23;;
18042;SDS011;9146;48.074;11.968;2023-05-14T09:40:07;13.60;;;10.10;;
18042;SDS011;9146;48.074;11.968;2023-05-14T09:42:35;12.63;;;10.30;;
18042;SDS011;9146;48.074;11.968;2023-05-14T09:45:02;12.00;;;10.37;;
18042;SDS011;9146;48.074;11.968;2023-05-14T09:47:29;14.60;;;10.73;;
18042;SDS011;9146;48.074;11.968;2023-05-14T09:49:56;13.33;;;9.97;;
18042;SDS011;9146;48.074;11.968;2023-05-14T09:52:23;11.93;;;10.63;;
18042;SDS011;9146;48.074;11.968;2023-05-14T09:54:52;14.93;;;10.87;;
18042;SDS011;9146;48.074;11.968;2023-05-14T09:57:19;11.17;;;9.43;;
18042;SDS011;9146;48.074;11.968;2023-05-14T09:59:46;10.03;;;8.73;;
18042;SDS011;9146;48.074;11.968;2023-05-14T10:02:15;11.20;;;9.43;;
18042;SDS011;9146;48.074;11.968;2023-05-14T10:04:46;12.90;;;9.53;;
18042;SDS011;9146;48.074;11.968;2023-05-14T10:07:16;12.77;;;9.93;;
18042;SDS011;9146;48.074;11.968;2023-05-14T10:09:47;26.53;;;13.67;;
18042;SDS011;9146;48.074;11.968;2023-05-14T10:12:18;12.07;;;8.90;;
18042;SDS011;9146;48.074;11.968;2023-05-14T10:14:47;15.77;;;9.20;;
18042;SDS011;9146;48.074;11.968;2023-05-14T10:17:18;14.03;;;10.67;;
18042;SDS011;9146;48.074;11.968;2023-05-14T10:19:49;10.83;;;8.47;;
18042;SDS011;9146;48.074;11.968;2023-05-14T10:22:21;11.57;;;9.00;;
18042;SDS011;9146;48.074;11.968;2023-05-14T10:24:49;11.10;;;9.27;;
18042;SDS011;9146;48.074;11.968;2023-05-14T10:27:19;13.20;;;7.83;;
18042;SDS011;9146;48.074;11.968;2023-05-14T10:29:50;10.40;;;9.10;;
18042;SDS011;9146;48.074;11.968;2023-05-14T10:32:19;9.57;;;8.53;;
18042;SDS011;9146;48.074;11.968;2023-05-14T10:34:46;11.40;;;9.10;;
18042;SDS011;9146;48.074;11.968;2023-05-14T10:37:14;9.97;;;8.53;;
18042;SDS011;9146;48.074;11.968;2023-05-14T10:39:43;15.27;;;9.47;;
18042;SDS011;9146;48.074;11.968;2023-05-14T10:42:12;10.60;;;8.43;;
18042;SDS011;9146;48.074;11.968;2023-05-14T10:44:44;7.97;;;7.17;;
18042;SDS011;9146;48.074;11.968;2023-05-14T10:47:13;8.97;;;7.77;;
18042;SDS011;9146;48.074;11.968;2023-05-14T10:49:42;12.90;;;7.70;;
18042;SDS011;9146;48.074;11.968;2023-05-14T10:52:14;7.37;;;6.30;;
18042;SDS011;9146;48.074;11.968;2023-05-14T10:54:44;7.03;;;6.33;;
18042;SDS011;9146;48.074;11.968;2023-05-14T10:57:16;8.83;;;6.73;;
18042;SDS011;9146;48.074;11.968;2023-05-14T10:59:45;8.50;;;6.80;;
18042;SDS011;9146;48.074;11.968;2023-05-14T11:02:23;6.73;;;5.97;;
18042;SDS011;9146;48.074;11.968;2023-05-14T11:04:54;8.07;;;7.27;;
18042;SDS011;9146;48.074;11.968;2023-05-14T11:07:24;7.57;;;6.70;;
18042;SDS011;9146;48.074;11.968;2023-05-14T11:09:56;7.80;;;6.83;;
18042;SDS011;9146;48.074;11.968;2023-05-14T11:12:26;7.87;;;7.17;;
18042;SDS011;9146;48.074;11.968;2023-05-14T11:14:55;6.93;;;6.23;;
18042;SDS011;9146;48.074;11.968;2023-05-14T11:17:23;7.37;;;6.57;;
18042;SDS011;9146;48.074;11.968;2023-05-14T11:19:50;6.53;;;5.80;;
18042;SDS011;9146;48.074;11.968;2023-05-14T11:22:17;6.30;;;5.53;;
18042;SDS011;9146;48.074;11.968;2023-05-14T11:24:44;7.50;;;6.80;;
18042;SDS011;9146;48.074;11.968;2023-05-14T11:27:11;6.53;;;5.93;;
18042;SDS011;9146;48.074;11.968;2023-05-14T11:29:41;7.37;;;6.00;;
18042;SDS011;9146;48.074;11.968;2023-05-14T11:32:11;6.33;;;5.07;;
18042;SDS011;9146;48.074;11.968;2023-05-14T11:34:39;6.60;;;5.90;;
18042;SDS011;9146;48.074;11.968;2023-05-14T11:37:07;5.17;;;4.70;;
18042;SDS011;9146;48.074;11.968;2023-05-14T11:39:35;11.50;;;6.03;;
18042;SDS011;9146;48.074;11.968;2023-05-14T11:42:03;5.40;;;4.93;;
18042;SDS011;9146;48.074;11.968;2023-05-14T11:44:31;4.60;;;4.20;;
18042;SDS011;9146;48.074;11.968;2023-05-14T11:46:58;4.47;;;4.17;;
18042;SDS011;9146;48.074;11.968;2023-05-14T11:49:30;6.83;;;4.53;;
18042;SDS011;9146;48.074;11.968;2023-05-14T11:51:59;5.47;;;4.97;;
18042;SDS011;9146;48.074;11.968;2023-05-14T11:54:27;5.50;;;5.00;;
18042;SDS011;9146;48.074;11.968;2023-05-14T11:56:55;5.37;;;4.87;;
18042;SDS011;9146;48.074;11.968;2023-05-14T11:59:23;4.43;;;4.13;;
18042;SDS011;9146;48.074;11.968;2023-05-14T12:01:50;4.60;;;4.20;;
18042;SDS011;9146;48.074;11.968;2023-05-14T12:04:18;4.60;;;4.30;;
18042;SDS011;9146;48.074;11.968;2023-05-14T12:06:48;5.00;;;4.60;;
18042;SDS011;9146;48.074;11.968;2023-05-14T12:09:15;5.50;;;4.97;;
18042;SDS011;9146;48.074;11.968;2023-05-14T12:11:43;6.27;;;4.90;;
18042;SDS011;9146;48.074;11.968;2023-05-14T12:14:11;6.10;;;5.40;;
18042;SDS011;9146;48.074;11.968;2023-05-14T12:16:41;8.07;;;5.63;;
18042;SDS011;9146;48.074;11.968;2023-05-14T12:19:09;8.73;;;6.73;;
18042;SDS011;9146;48.074;11.968;2023-05-14T12:21:37;8.97;;;6.03;;
18042;SDS011;9146;48.074;11.968;2023-05-14T12:24:07;4.93;;;4.43;;
18042;SDS011;9146;48.074;11.968;2023-05-14T12:26:36;6.07;;;5.07;;
18042;SDS011;9146;48.074;11.968;2023-05-14T12:29:04;7.23;;;5.17;;
18042;SDS011;9146;48.074;11.968;2023-05-14T12:31:32;4.13;;;3.80;;
18042;SDS011;9146;48.074;11.968;2023-05-14T12:34:00;4.30;;;3.90;;
18042;SDS011;9146;48.074;11.968;2023-05-14T12:36:28;3.40;;;3.20;;
18042;SDS011;9146;48.074;11.968;2023-05-14T12:38:57;4.30;;;3.90;;
18042;SDS011;9146;48.074;11.968;2023-05-14T12:41:27;4.20;;;3.80;;
18042;SDS011;9146;48.074;11.968;2023-05-14T12:43:54;3.93;;;3.53;;
18042;SDS011;9146;48.074;11.968;2023-05-14T12:46:21;4.17;;;3.77;;
18042;SDS011;9146;48.074;11.968;2023-05-14T12:48:48;4.27;;;3.87;;
18042;SDS011;9146;48.074;11.968;2023-05-14T12:51:16;4.03;;;3.63;;
18042;SDS011;9146;48.074;11.968;2023-05-14T12:53:43;4.27;;;3.87;;
18042;SDS011;9146;48.074;11.968;2023-05-14T12:56:10;4.50;;;4.10;;
18042;SDS011;9146;48.074;11.968;2023-05-14T12:58:38;4.23;;;3.83;;
18042;SDS011;9146;48.074;11.968;2023-05-14T13:01:05;4.17;;;3.87;;
18042;SDS011;9146;48.074;11.968;2023-05-14T13:03:32;4.50;;;4.10;;
18042;SDS011;9146;48.074;11.968;2023-05-14T13:05:59;3.73;;;3.43;;
18042;SDS011;9146;48.074;11.968;2023-05-14T13:08:26;4.30;;;3.90;;
18042;SDS011;9146;48.074;11.968;2023-05-14T13:10:54;4.70;;;4.30;;
18042;SDS011;9146;48.074;11.968;2023-05-14T13:13:21;3.63;;;3.33;;
18042;SDS011;9146;48.074;11.968;2023-05-14T13:15:50;3.60;;;3.40;;
18042;SDS011;9146;48.074;11.968;2023-05-14T13:18:18;4.00;;;3.57;;
18042;SDS011;9146;48.074;11.968;2023-05-14T13:20:45;4.67;;;4.30;;
18042;SDS011;9146;48.074;11.968;2023-05-14T13:23:12;4.57;;;4.17;;
18042;SDS011;9146;48.074;11.968;2023-05-14T13:25:40;3.83;;;3.53;;
18042;SDS011;9146;48.074;11.968;2023-05-14T13:28:07;4.23;;;3.10;;
18042;SDS011;9146;48.074;11.968;2023-05-14T13:30:34;3.97;;;3.57;;
18042;SDS011;9146;48.074;11.968;2023-05-14T13:33:03;3.60;;;3.23;;
18042;SDS011;9146;48.074;11.968;2023-05-14T13:35:30;4.27;;;3.87;;
18042;SDS011;9146;48.074;11.968;2023-05-14T13:37:58;2.93;;;2.73;;
18042;SDS011;9146;48.074;11.968;2023-05-14T13:40:25;3.20;;;2.90;;
18042;SDS011;9146;48.074;11.968;2023-05-14T13:42:52;4.23;;;3.00;;
18042;SDS011;9146;48.074;11.968;2023-05-14T13:45:19;2.87;;;2.47;;
18042;SDS011;9146;48.074;11.968;2023-05-14T13:47:46;3.00;;;2.70;;
18042;SDS011;9146;48.074;11.968;2023-05-14T13:50:14;3.00;;;2.80;;
18042;SDS011;9146;48.074;11.968;2023-05-14T13:52:41;4.27;;;2.80;;
18042;SDS011;9146;48.074;11.968;2023-05-14T13:55:08;2.87;;;2.67;;
18042;SDS011;9146;48.074;11.968;2023-05-14T13:57:35;2.50;;;2.30;;
18042;SDS011;9146;48.074;11.968;2023-05-14T14:00:04;2.80;;;2.60;;
18042;SDS011;9146;48.074;11.968;2023-05-14T14:02:32;2.60;;;2.40;;
18042;SDS011;9146;48.074;11.968;2023-05-14T14:04:59;2.50;;;2.17;;
18042;SDS011;9146;48.074;11.968;2023-05-14T14:07:27;2.40;;;2.30;;
18042;SDS011;9146;48.074;11.968;2023-05-14T14:09:54;3.10;;;2.90;;
18042;SDS011;9146;48.074;11.968;2023-05-14T14:12:21;3.57;;;3.27;;
18042;SDS011;9146;48.074;11.968;2023-05-14T14:14:47;5.30;;;3.57;;
18042;SDS011;9146;48.074;11.968;2023-05-14T14:17:15;3.30;;;3.00;;
18042;SDS011;9146;48.074;11.968;2023-05-14T14:19:41;4.47;;;4.07;;
18042;SDS011;9146;48.074;11.968;2023-05-14T14:22:09;3.67;;;3.40;;
18042;SDS011;9146;48.074;11.968;2023-05-14T14:24:38;3.30;;;3.10;;
18042;SDS011;9146;48.074;11.968;2023-05-14T14:27:04;3.13;;;2.90;;
18042;SDS011;9146;48.074;11.968;2023-05-14T14:29:31;3.30;;;3.10;;
18042;SDS011;9146;48.074;11.968;2023-05-14T14:31:59;3.60;;;3.30;;
18042;SDS011;9146;48.074;11.968;2023-05-14T14:34:26;3.50;;;3.20;;